sensor_id;sensor_type;location;lat;lon;timestamp;temperature;humidity
2260;DHT22;333;48.800;9.530;2023-12-14T00:01:13;6.30;99.60
2260;DHT22;333;48.800;9.530;2023-12-14T00:03:40;6.30;99.60
2260;DHT22;333;48.800;9.530;2023-12-14T00:06:11;6.20;99.60
2260;DHT22;333;48.800;9.530;2023-12-14T00:08:38;6.20;99.60
2260;DHT22;333;48.800;9.530;2023-12-14T00:11:05;6.10;99.60
2260;DHT22;333;48.800;9.530;2023-12-14T00:13:33;6.20;99.60
2260;DHT22;333;48.800;9.530;2023-12-14T00:16:00;6.20;99.60
2260;DHT22;333;48.800;9.530;2023-12-14T00:18:27;6.20;99.60
2260;DHT22;333;48.800;9.530;2023-12-14T00:20:54;6.40;99.60
2260;DHT22;333;48.800;9.530;2023-12-14T00:23:23;6.30;99.60
2260;DHT22;333;48.800;9.530;2023-12-14T00:25:50;6.40;99.60
2260;DHT22;333;48.800;9.530;2023-12-14T00:28:17;6.60;99.60
2260;DHT22;333;48.800;9.530;2023-12-14T00:30:44;6.60;99.60
2260;DHT22;333;48.800;9.530;2023-12-14T00:33:11;6.40;99.60
2260;DHT22;333;48.800;9.530;2023-12-14T00:35:38;6.30;99.60
2260;DHT22;333;48.800;9.530;2023-12-14T00:38:05;6.30;99.60
2260;DHT22;333;48.800;9.530;2023-12-14T00:40:33;6.40;99.60
2260;DHT22;333;48.800;9.530;2023-12-14T00:43:00;6.50;99.60
2260;DHT22;333;48.800;9.530;2023-12-14T00:45:27;6.60;99.60
2260;DHT22;333;48.800;9.530;2023-12-14T00:47:54;6.60;99.60
2260;DHT22;333;48.800;9.530;2023-12-14T00:50:21;6.70;99.60
2260;DHT22;333;48.800;9.530;2023-12-14T00:52:48;6.60;99.60
2260;DHT22;333;48.800;9.530;2023-12-14T00:55:15;6.60;99.60
2260;DHT22;333;48.800;9.530;2023-12-14T00:57:43;6.70;99.60
2260;DHT22;333;48.800;9.530;2023-12-14T01:00:11;6.60;99.60
2260;DHT22;333;48.800;9.530;2023-12-14T01:02:38;6.60;99.60
2260;DHT22;333;48.800;9.530;2023-12-14T01:05:06;6.70;99.60
2260;DHT22;333;48.800;9.530;2023-12-14T01:07:33;6.60;99.60
2260;DHT22;333;48.800;9.530;2023-12-14T01:10:00;6.50;99.60
2260;DHT22;333;48.800;9.530;2023-12-14T01:12:30;6.50;99.60
2260;DHT22;333;48.800;9.530;2023-12-14T01:14:58;6.50;99.60
2260;DHT22;333;48.800;9.530;2023-12-14T01:17:25;6.60;99.60
2260;DHT22;333;48.800;9.530;2023-12-14T01:19:56;6.50;99.60
2260;DHT22;333;48.800;9.530;2023-12-14T01:22:23;6.60;99.60
2260;DHT22;333;48.800;9.530;2023-12-14T01:24:50;6.50;99.60
2260;DHT22;333;48.800;9.530;2023-12-14T01:27:17;6.50;99.60
2260;DHT22;333;48.800;9.530;2023-12-14T01:29:44;6.70;99.60
2260;DHT22;333;48.800;9.530;2023-12-14T01:32:12;6.80;99.60
2260;DHT22;333;48.800;9.530;2023-12-14T01:34:39;6.70;99.60
2260;DHT22;333;48.800;9.530;2023-12-14T01:37:06;6.60;99.60
2260;DHT22;333;48.800;9.530;2023-12-14T01:39:33;6.50;99.60
2260;DHT22;333;48.800;9.530;2023-12-14T01:42:00;6.50;99.60
2260;DHT22;333;48.800;9.530;2023-12-14T01:44:27;6.60;99.60
2260;DHT22;333;48.800;9.530;2023-12-14T01:46:54;6.60;99.60
2260;DHT22;333;48.800;9.530;2023-12-14T01:49:23;6.50;99.60
2260;DHT22;333;48.800;9.530;2023-12-14T01:51:50;6.70;99.60
2260;DHT22;333;48.800;9.530;2023-12-14T01:54:17;6.60;99.60
2260;DHT22;333;48.800;9.530;2023-12-14T01:56:44;6.40;99.60
2260;DHT22;333;48.800;9.530;2023-12-14T01:59:12;6.30;99.60
2260;DHT22;333;48.800;9.530;2023-12-14T02:01:42;6.30;99.60
2260;DHT22;333;48.800;9.530;2023-12-14T02:04:10;6.40;99.60
2260;DHT22;333;48.800;9.530;2023-12-14T02:06:39;6.40;99.60
2260;DHT22;333;48.800;9.530;2023-12-14T02:09:06;6.30;99.60
2260;DHT22;333;48.800;9.530;2023-12-14T02:11:33;6.30;99.60
2260;DHT22;333;48.800;9.530;2023-12-14T02:14:03;6.30;99.60
2260;DHT22;333;48.800;9.530;2023-12-14T02:16:30;6.30;99.60
2260;DHT22;333;48.800;9.530;2023-12-14T02:18:58;6.40;99.60
2260;DHT22;333;48.800;9.530;2023-12-14T02:21:25;6.40;99.60
2260;DHT22;333;48.800;9.530;2023-12-14T02:23:53;6.40;99.60
2260;DHT22;333;48.800;9.530;2023-12-14T02:26:20;6.30;99.60
2260;DHT22;333;48.800;9.530;2023-12-14T02:28:47;6.30;99.60
2260;DHT22;333;48.800;9.530;2023-12-14T02:31:14;6.20;99.60
2260;DHT22;333;48.800;9.530;2023-12-14T02:33:41;6.40;99.60
2260;DHT22;333;48.800;9.530;2023-12-14T02:36:08;6.60;99.60
2260;DHT22;333;48.800;9.530;2023-12-14T02:38:35;6.60;99.60
2260;DHT22;333;48.800;9.530;2023-12-14T02:41:04;6.60;99.60
2260;DHT22;333;48.800;9.530;2023-12-14T02:43:31;6.50;99.60
2260;DHT22;333;48.800;9.530;2023-12-14T02:45:59;6.50;99.60
2260;DHT22;333;48.800;9.530;2023-12-14T02:48:27;6.40;99.60
2260;DHT22;333;48.800;9.530;2023-12-14T02:50:55;6.30;99.60
2260;DHT22;333;48.800;9.530;2023-12-14T02:53:22;6.30;99.60
2260;DHT22;333;48.800;9.530;2023-12-14T02:55:49;6.50;99.60
2260;DHT22;333;48.800;9.530;2023-12-14T02:58:18;6.50;99.60
2260;DHT22;333;48.800;9.530;2023-12-14T03:00:45;6.50;99.60
2260;DHT22;333;48.800;9.530;2023-12-14T03:03:12;6.60;99.60
2260;DHT22;333;48.800;9.530;2023-12-14T03:05:39;6.70;99.60
2260;DHT22;333;48.800;9.530;2023-12-14T03:08:06;6.70;99.60
2260;DHT22;333;48.800;9.530;2023-12-14T03:10:33;6.80;99.60
2260;DHT22;333;48.800;9.530;2023-12-14T03:13:00;6.80;99.60
2260;DHT22;333;48.800;9.530;2023-12-14T03:15:29;6.70;99.60
2260;DHT22;333;48.800;9.530;2023-12-14T03:17:55;6.60;99.60
2260;DHT22;333;48.800;9.530;2023-12-14T03:20:22;6.50;99.60
2260;DHT22;333;48.800;9.530;2023-12-14T03:22:49;6.50;99.60
2260;DHT22;333;48.800;9.530;2023-12-14T03:25:16;6.40;99.60
2260;DHT22;333;48.800;9.530;2023-12-14T03:27:43;6.40;99.60
2260;DHT22;333;48.800;9.530;2023-12-14T03:30:11;6.40;99.60
2260;DHT22;333;48.800;9.530;2023-12-14T03:32:39;6.50;99.60
2260;DHT22;333;48.800;9.530;2023-12-14T03:35:06;6.50;99.60
2260;DHT22;333;48.800;9.530;2023-12-14T03:37:34;6.60;99.60
2260;DHT22;333;48.800;9.530;2023-12-14T03:40:00;6.50;99.60
2260;DHT22;333;48.800;9.530;2023-12-14T03:42:27;6.60;99.60
2260;DHT22;333;48.800;9.530;2023-12-14T03:44:55;6.60;99.60
2260;DHT22;333;48.800;9.530;2023-12-14T03:47:22;6.70;99.60
2260;DHT22;333;48.800;9.530;2023-12-14T03:49:50;6.70;99.60
2260;DHT22;333;48.800;9.530;2023-12-14T03:52:17;6.70;99.60
2260;DHT22;333;48.800;9.530;2023-12-14T03:54:45;6.80;99.60
2260;DHT22;333;48.800;9.530;2023-12-14T03:57:12;6.70;99.60
2260;DHT22;333;48.800;9.530;2023-12-14T03:59:39;6.70;99.60
2260;DHT22;333;48.800;9.530;2023-12-14T04:02:07;6.60;99.60
2260;DHT22;333;48.800;9.530;2023-12-14T04:04:34;6.50;99.60
2260;DHT22;333;48.800;9.530;2023-12-14T04:07:02;6.50;99.60
2260;DHT22;333;48.800;9.530;2023-12-14T04:09:29;6.60;99.60
2260;DHT22;333;48.800;9.530;2023-12-14T04:11:56;6.70;99.60
2260;DHT22;333;48.800;9.530;2023-12-14T04:14:23;6.80;99.60
2260;DHT22;333;48.800;9.530;2023-12-14T04:16:50;6.80;99.60
2260;DHT22;333;48.800;9.530;2023-12-14T04:19:17;6.70;99.60
2260;DHT22;333;48.800;9.530;2023-12-14T04:21:44;6.80;99.60
2260;DHT22;333;48.800;9.530;2023-12-14T04:24:13;6.90;99.60
2260;DHT22;333;48.800;9.530;2023-12-14T04:26:40;6.80;99.60
2260;DHT22;333;48.800;9.530;2023-12-14T04:29:07;6.70;99.60
2260;DHT22;333;48.800;9.530;2023-12-14T04:31:35;6.70;99.60
2260;DHT22;333;48.800;9.530;2023-12-14T04:34:01;6.70;99.60
2260;DHT22;333;48.800;9.530;2023-12-14T04:36:28;6.60;99.60
2260;DHT22;333;48.800;9.530;2023-12-14T04:38:55;6.50;99.60
2260;DHT22;333;48.800;9.530;2023-12-14T04:41:24;6.50;99.60
2260;DHT22;333;48.800;9.530;2023-12-14T04:43:51;6.50;99.60
2260;DHT22;333;48.800;9.530;2023-12-14T04:46:18;6.50;99.60
2260;DHT22;333;48.800;9.530;2023-12-14T04:48:45;6.40;99.60
2260;DHT22;333;48.800;9.530;2023-12-14T04:51:12;6.40;99.60
2260;DHT22;333;48.800;9.530;2023-12-14T04:53:40;6.50;99.60
2260;DHT22;333;48.800;9.530;2023-12-14T04:56:10;6.50;99.60
2260;DHT22;333;48.800;9.530;2023-12-14T04:58:39;6.60;99.60
2260;DHT22;333;48.800;9.530;2023-12-14T05:01:07;6.50;99.60
2260;DHT22;333;48.800;9.530;2023-12-14T05:03:34;6.50;99.60
2260;DHT22;333;48.800;9.530;2023-12-14T05:06:01;6.50;99.60
2260;DHT22;333;48.800;9.530;2023-12-14T05:08:28;6.60;99.60
2260;DHT22;333;48.800;9.530;2023-12-14T05:10:55;6.60;99.60
2260;DHT22;333;48.800;9.530;2023-12-14T05:13:22;6.70;99.60
2260;DHT22;333;48.800;9.530;2023-12-14T05:15:53;6.70;99.60
2260;DHT22;333;48.800;9.530;2023-12-14T05:18:20;6.80;99.60
2260;DHT22;333;48.800;9.530;2023-12-14T05:20:47;6.70;99.60
2260;DHT22;333;48.800;9.530;2023-12-14T05:23:14;6.70;99.60
2260;DHT22;333;48.800;9.530;2023-12-14T05:25:41;6.60;99.60
2260;DHT22;333;48.800;9.530;2023-12-14T05:28:08;6.50;99.60
2260;DHT22;333;48.800;9.530;2023-12-14T05:30:35;6.70;99.60
2260;DHT22;333;48.800;9.530;2023-12-14T05:33:04;6.90;99.60
2260;DHT22;333;48.800;9.530;2023-12-14T05:35:31;6.90;99.60
2260;DHT22;333;48.800;9.530;2023-12-14T05:37:58;7.00;99.60
2260;DHT22;333;48.800;9.530;2023-12-14T05:40:25;6.90;99.60
2260;DHT22;333;48.800;9.530;2023-12-14T05:42:52;6.80;99.60
2260;DHT22;333;48.800;9.530;2023-12-14T05:45:19;6.80;99.60
2260;DHT22;333;48.800;9.530;2023-12-14T05:47:46;6.90;99.60
2260;DHT22;333;48.800;9.530;2023-12-14T05:50:14;6.80;99.60
2260;DHT22;333;48.800;9.530;2023-12-14T05:52:41;6.80;99.60
2260;DHT22;333;48.800;9.530;2023-12-14T05:55:08;6.70;99.60
2260;DHT22;333;48.800;9.530;2023-12-14T05:57:36;6.70;99.60
2260;DHT22;333;48.800;9.530;2023-12-14T06:00:04;6.80;99.60
2260;DHT22;333;48.800;9.530;2023-12-14T06:02:31;6.80;99.60
2260;DHT22;333;48.800;9.530;2023-12-14T06:04:58;6.80;99.60
2260;DHT22;333;48.800;9.530;2023-12-14T06:07:27;6.90;99.60
2260;DHT22;333;48.800;9.530;2023-12-14T06:09:53;6.90;99.60
2260;DHT22;333;48.800;9.530;2023-12-14T06:12:20;6.90;99.60
2260;DHT22;333;48.800;9.530;2023-12-14T06:14:47;6.80;99.60
2260;DHT22;333;48.800;9.530;2023-12-14T06:17:15;6.90;99.60
2260;DHT22;333;48.800;9.530;2023-12-14T06:19:42;6.90;99.60
2260;DHT22;333;48.800;9.530;2023-12-14T06:22:09;7.00;99.60
2260;DHT22;333;48.800;9.530;2023-12-14T06:24:38;7.00;99.60
2260;DHT22;333;48.800;9.530;2023-12-14T06:27:05;7.00;99.60
2260;DHT22;333;48.800;9.530;2023-12-14T06:29:32;6.90;99.60
2260;DHT22;333;48.800;9.530;2023-12-14T06:31:59;6.80;99.60
2260;DHT22;333;48.800;9.530;2023-12-14T06:34:26;6.80;99.60
2260;DHT22;333;48.800;9.530;2023-12-14T06:36:53;6.90;99.60
2260;DHT22;333;48.800;9.530;2023-12-14T06:39:20;6.90;99.60
2260;DHT22;333;48.800;9.530;2023-12-14T06:41:52;6.80;99.60
2260;DHT22;333;48.800;9.530;2023-12-14T06:44:19;6.80;99.60
2260;DHT22;333;48.800;9.530;2023-12-14T06:46:46;6.80;99.60
2260;DHT22;333;48.800;9.530;2023-12-14T06:49:13;6.80;99.60
2260;DHT22;333;48.800;9.530;2023-12-14T06:51:40;6.90;99.60
2260;DHT22;333;48.800;9.530;2023-12-14T06:54:07;6.90;99.60
2260;DHT22;333;48.800;9.530;2023-12-14T06:56:36;7.00;99.60
2260;DHT22;333;48.800;9.530;2023-12-14T06:59:04;6.90;99.60
2260;DHT22;333;48.800;9.530;2023-12-14T07:01:31;6.90;99.60
2260;DHT22;333;48.800;9.530;2023-12-14T07:03:58;7.00;99.60
2260;DHT22;333;48.800;9.530;2023-12-14T07:06:26;7.00;99.60
2260;DHT22;333;48.800;9.530;2023-12-14T07:08:53;6.90;99.60
2260;DHT22;333;48.800;9.530;2023-12-14T07:14:43;6.90;99.60
2260;DHT22;333;48.800;9.530;2023-12-14T07:17:13;6.90;99.60
2260;DHT22;333;48.800;9.530;2023-12-14T07:19:40;6.90;99.60
2260;DHT22;333;48.800;9.530;2023-12-14T07:22:07;6.90;99.60
2260;DHT22;333;48.800;9.530;2023-12-14T07:24:35;6.80;99.60
2260;DHT22;333;48.800;9.530;2023-12-14T07:27:03;6.90;99.60
2260;DHT22;333;48.800;9.530;2023-12-14T07:29:30;6.90;99.60
2260;DHT22;333;48.800;9.530;2023-12-14T07:31:58;7.00;99.60
2260;DHT22;333;48.800;9.530;2023-12-14T07:34:25;6.90;99.60
2260;DHT22;333;48.800;9.530;2023-12-14T07:36:53;7.10;99.60
2260;DHT22;333;48.800;9.530;2023-12-14T07:39:20;7.20;99.60
2260;DHT22;333;48.800;9.530;2023-12-14T07:41:47;7.20;99.60
2260;DHT22;333;48.800;9.530;2023-12-14T07:44:14;7.10;99.60
2260;DHT22;333;48.800;9.530;2023-12-14T07:46:41;7.10;99.60
2260;DHT22;333;48.800;9.530;2023-12-14T07:49:10;7.10;99.60
2260;DHT22;333;48.800;9.530;2023-12-14T07:51:37;7.10;99.60
2260;DHT22;333;48.800;9.530;2023-12-14T07:54:04;7.20;99.60
2260;DHT22;333;48.800;9.530;2023-12-14T07:56:31;7.00;99.60
2260;DHT22;333;48.800;9.530;2023-12-14T07:58:59;7.00;99.60
2260;DHT22;333;48.800;9.530;2023-12-14T08:01:26;7.20;99.60
2260;DHT22;333;48.800;9.530;2023-12-14T08:03:53;7.20;99.60
2260;DHT22;333;48.800;9.530;2023-12-14T08:06:21;7.20;99.60
2260;DHT22;333;48.800;9.530;2023-12-14T08:08:48;7.40;99.60
2260;DHT22;333;48.800;9.530;2023-12-14T08:11:15;7.50;99.60
2260;DHT22;333;48.800;9.530;2023-12-14T08:13:42;7.40;99.60
2260;DHT22;333;48.800;9.530;2023-12-14T08:16:09;7.50;99.60
2260;DHT22;333;48.800;9.530;2023-12-14T08:18:37;7.50;99.60
2260;DHT22;333;48.800;9.530;2023-12-14T08:21:05;7.40;99.60
2260;DHT22;333;48.800;9.530;2023-12-14T08:23:33;7.60;99.60
2260;DHT22;333;48.800;9.530;2023-12-14T08:26:00;7.60;99.60
2260;DHT22;333;48.800;9.530;2023-12-14T08:28:28;7.50;99.60
2260;DHT22;333;48.800;9.530;2023-12-14T08:30:55;7.60;99.60
2260;DHT22;333;48.800;9.530;2023-12-14T08:33:23;7.60;99.60
2260;DHT22;333;48.800;9.530;2023-12-14T08:35:50;7.70;99.60
2260;DHT22;333;48.800;9.530;2023-12-14T08:38:17;7.70;99.60
2260;DHT22;333;48.800;9.530;2023-12-14T08:40:46;7.60;99.60
2260;DHT22;333;48.800;9.530;2023-12-14T08:43:13;7.80;99.60
2260;DHT22;333;48.800;9.530;2023-12-14T08:45:40;7.90;99.60
2260;DHT22;333;48.800;9.530;2023-12-14T08:48:07;7.90;99.60
2260;DHT22;333;48.800;9.530;2023-12-14T08:50:34;8.00;99.60
2260;DHT22;333;48.800;9.530;2023-12-14T08:53:01;8.00;99.60
2260;DHT22;333;48.800;9.530;2023-12-14T08:55:30;7.90;99.60
2260;DHT22;333;48.800;9.530;2023-12-14T08:57:58;7.80;99.60
2260;DHT22;333;48.800;9.530;2023-12-14T09:00:26;7.90;99.60
2260;DHT22;333;48.800;9.530;2023-12-14T09:02:53;7.90;99.60
2260;DHT22;333;48.800;9.530;2023-12-14T09:05:20;7.90;99.60
2260;DHT22;333;48.800;9.530;2023-12-14T09:07:47;8.00;99.60
2260;DHT22;333;48.800;9.530;2023-12-14T09:10:14;8.10;99.60
2260;DHT22;333;48.800;9.530;2023-12-14T09:12:41;8.10;99.60
2260;DHT22;333;48.800;9.530;2023-12-14T09:15:10;8.10;99.60
2260;DHT22;333;48.800;9.530;2023-12-14T09:17:37;8.10;99.60
2260;DHT22;333;48.800;9.530;2023-12-14T09:20:05;8.30;99.60
2260;DHT22;333;48.800;9.530;2023-12-14T09:22:32;8.20;99.60
2260;DHT22;333;48.800;9.530;2023-12-14T09:24:59;8.10;99.60
2260;DHT22;333;48.800;9.530;2023-12-14T09:27:28;8.20;99.60
2260;DHT22;333;48.800;9.530;2023-12-14T09:29:56;8.20;99.60
2260;DHT22;333;48.800;9.530;2023-12-14T09:32:24;8.20;99.60
2260;DHT22;333;48.800;9.530;2023-12-14T09:34:51;8.20;99.60
2260;DHT22;333;48.800;9.530;2023-12-14T09:37:22;8.20;99.60
2260;DHT22;333;48.800;9.530;2023-12-14T09:39:49;8.20;99.60
2260;DHT22;333;48.800;9.530;2023-12-14T09:42:18;8.20;99.60
2260;DHT22;333;48.800;9.530;2023-12-14T09:44:46;8.30;99.60
2260;DHT22;333;48.800;9.530;2023-12-14T09:47:14;8.30;99.60
2260;DHT22;333;48.800;9.530;2023-12-14T09:49:42;8.20;99.60
2260;DHT22;333;48.800;9.530;2023-12-14T09:52:10;8.20;99.60
2260;DHT22;333;48.800;9.530;2023-12-14T09:54:37;8.20;99.60
2260;DHT22;333;48.800;9.530;2023-12-14T09:57:04;8.20;99.60
2260;DHT22;333;48.800;9.530;2023-12-14T09:59:31;8.30;99.60
2260;DHT22;333;48.800;9.530;2023-12-14T10:02:13;8.30;99.60
2260;DHT22;333;48.800;9.530;2023-12-14T10:04:42;8.30;99.60
2260;DHT22;333;48.800;9.530;2023-12-14T10:07:09;8.30;99.60
2260;DHT22;333;48.800;9.530;2023-12-14T10:09:37;8.30;99.60
2260;DHT22;333;48.800;9.530;2023-12-14T10:12:06;8.30;99.60
2260;DHT22;333;48.800;9.530;2023-12-14T10:14:34;8.30;99.60
2260;DHT22;333;48.800;9.530;2023-12-14T10:17:14;8.40;99.60
2260;DHT22;333;48.800;9.530;2023-12-14T10:19:44;8.50;99.60
2260;DHT22;333;48.800;9.530;2023-12-14T10:22:13;8.80;99.60
2260;DHT22;333;48.800;9.530;2023-12-14T10:24:43;9.00;99.60
2260;DHT22;333;48.800;9.530;2023-12-14T10:27:10;9.20;99.60
2260;DHT22;333;48.800;9.530;2023-12-14T10:29:37;9.40;99.60
2260;DHT22;333;48.800;9.530;2023-12-14T10:32:06;9.50;99.60
2260;DHT22;333;48.800;9.530;2023-12-14T10:34:34;9.60;99.60
2260;DHT22;333;48.800;9.530;2023-12-14T10:37:05;9.40;99.60
2260;DHT22;333;48.800;9.530;2023-12-14T10:39:33;9.30;99.60
2260;DHT22;333;48.800;9.530;2023-12-14T10:42:02;9.10;99.60
2260;DHT22;333;48.800;9.530;2023-12-14T10:44:31;9.00;99.60
2260;DHT22;333;48.800;9.530;2023-12-14T10:47:02;9.00;99.60
2260;DHT22;333;48.800;9.530;2023-12-14T10:49:31;9.10;99.60
2260;DHT22;333;48.800;9.530;2023-12-14T10:52:00;9.20;99.60
2260;DHT22;333;48.800;9.530;2023-12-14T10:54:32;9.30;99.60
2260;DHT22;333;48.800;9.530;2023-12-14T10:57:01;9.30;99.60
2260;DHT22;333;48.800;9.530;2023-12-14T10:59:31;9.40;99.60
2260;DHT22;333;48.800;9.530;2023-12-14T11:01:57;9.30;99.60
2260;DHT22;333;48.800;9.530;2023-12-14T11:04:26;9.20;99.60
2260;DHT22;333;48.800;9.530;2023-12-14T11:06:53;9.10;99.60
2260;DHT22;333;48.800;9.530;2023-12-14T11:09:23;9.00;99.60
2260;DHT22;333;48.800;9.530;2023-12-14T11:11:57;8.90;99.60
2260;DHT22;333;48.800;9.530;2023-12-14T11:14:26;8.90;99.60
2260;DHT22;333;48.800;9.530;2023-12-14T11:16:55;8.90;99.60
2260;DHT22;333;48.800;9.530;2023-12-14T11:19:30;9.00;99.60
2260;DHT22;333;48.800;9.530;2023-12-14T11:22:22;8.90;99.60
2260;DHT22;333;48.800;9.530;2023-12-14T11:24:54;8.90;99.60
2260;DHT22;333;48.800;9.530;2023-12-14T11:27:32;8.90;99.60
2260;DHT22;333;48.800;9.530;2023-12-14T11:30:00;9.00;99.60
2260;DHT22;333;48.800;9.530;2023-12-14T11:32:28;9.00;99.60
2260;DHT22;333;48.800;9.530;2023-12-14T11:34:56;9.10;99.60
2260;DHT22;333;48.800;9.530;2023-12-14T11:37:23;9.30;99.60
2260;DHT22;333;48.800;9.530;2023-12-14T11:39:51;9.30;99.60
2260;DHT22;333;48.800;9.530;2023-12-14T11:42:20;9.40;99.60
2260;DHT22;333;48.800;9.530;2023-12-14T11:44:49;9.50;99.60
2260;DHT22;333;48.800;9.530;2023-12-14T11:47:16;9.50;99.60
2260;DHT22;333;48.800;9.530;2023-12-14T11:49:43;9.40;99.60
2260;DHT22;333;48.800;9.530;2023-12-14T11:52:10;9.40;99.60
2260;DHT22;333;48.800;9.530;2023-12-14T11:54:37;9.40;99.60
2260;DHT22;333;48.800;9.530;2023-12-14T11:57:04;9.40;99.60
2260;DHT22;333;48.800;9.530;2023-12-14T11:59:35;9.30;99.60
2260;DHT22;333;48.800;9.530;2023-12-14T12:02:05;9.30;99.60
2260;DHT22;333;48.800;9.530;2023-12-14T12:04:32;9.30;99.60
2260;DHT22;333;48.800;9.530;2023-12-14T12:07:00;9.30;99.60
2260;DHT22;333;48.800;9.530;2023-12-14T12:09:34;9.40;99.60
2260;DHT22;333;48.800;9.530;2023-12-14T12:12:05;9.40;99.60
2260;DHT22;333;48.800;9.530;2023-12-14T12:14:32;9.40;99.60
2260;DHT22;333;48.800;9.530;2023-12-14T12:16:59;9.50;99.60
2260;DHT22;333;48.800;9.530;2023-12-14T12:19:28;9.40;99.60
2260;DHT22;333;48.800;9.530;2023-12-14T12:21:55;9.40;99.60
2260;DHT22;333;48.800;9.530;2023-12-14T12:24:21;9.40;99.60
2260;DHT22;333;48.800;9.530;2023-12-14T12:26:49;9.50;99.60
2260;DHT22;333;48.800;9.530;2023-12-14T12:29:16;9.40;99.60
2260;DHT22;333;48.800;9.530;2023-12-14T12:31:43;9.40;99.60
2260;DHT22;333;48.800;9.530;2023-12-14T12:34:11;9.30;99.60
2260;DHT22;333;48.800;9.530;2023-12-14T12:36:39;9.30;99.60
2260;DHT22;333;48.800;9.530;2023-12-14T12:39:06;9.20;99.60
2260;DHT22;333;48.800;9.530;2023-12-14T12:41:34;9.20;99.60
2260;DHT22;333;48.800;9.530;2023-12-14T12:44:03;9.20;99.60
2260;DHT22;333;48.800;9.530;2023-12-14T12:46:33;9.20;99.60
2260;DHT22;333;48.800;9.530;2023-12-14T12:49:01;9.20;99.60
2260;DHT22;333;48.800;9.530;2023-12-14T12:51:28;9.10;99.60
2260;DHT22;333;48.800;9.530;2023-12-14T12:53:58;9.20;99.60
2260;DHT22;333;48.800;9.530;2023-12-14T12:56:26;9.20;99.60
2260;DHT22;333;48.800;9.530;2023-12-14T12:58:53;9.20;99.60
2260;DHT22;333;48.800;9.530;2023-12-14T13:01:21;9.20;99.60
2260;DHT22;333;48.800;9.530;2023-12-14T13:03:54;9.30;99.60
2260;DHT22;333;48.800;9.530;2023-12-14T13:06:24;9.30;99.60
2260;DHT22;333;48.800;9.530;2023-12-14T13:08:51;9.40;99.60
2260;DHT22;333;48.800;9.530;2023-12-14T13:11:20;9.40;99.60
2260;DHT22;333;48.800;9.530;2023-12-14T13:13:47;9.50;99.60
2260;DHT22;333;48.800;9.530;2023-12-14T13:16:14;9.50;99.60
2260;DHT22;333;48.800;9.530;2023-12-14T13:18:43;9.50;99.60
2260;DHT22;333;48.800;9.530;2023-12-14T13:21:10;9.50;99.60
2260;DHT22;333;48.800;9.530;2023-12-14T13:23:37;9.50;99.60
2260;DHT22;333;48.800;9.530;2023-12-14T13:26:04;9.30;99.60
2260;DHT22;333;48.800;9.530;2023-12-14T13:28:32;9.30;99.60
2260;DHT22;333;48.800;9.530;2023-12-14T13:30:59;9.20;99.60
2260;DHT22;333;48.800;9.530;2023-12-14T13:33:26;9.10;99.60
2260;DHT22;333;48.800;9.530;2023-12-14T13:35:53;9.10;99.60
2260;DHT22;333;48.800;9.530;2023-12-14T13:38:20;9.00;99.60
2260;DHT22;333;48.800;9.530;2023-12-14T13:40:47;9.00;99.60
2260;DHT22;333;48.800;9.530;2023-12-14T13:43:14;8.90;99.60
2260;DHT22;333;48.800;9.530;2023-12-14T13:45:43;8.90;99.60
2260;DHT22;333;48.800;9.530;2023-12-14T13:48:10;8.90;99.60
2260;DHT22;333;48.800;9.530;2023-12-14T13:50:37;8.90;99.60
2260;DHT22;333;48.800;9.530;2023-12-14T13:53:04;8.80;99.60
2260;DHT22;333;48.800;9.530;2023-12-14T13:55:31;8.70;99.60
2260;DHT22;333;48.800;9.530;2023-12-14T13:57:58;8.70;99.60
2260;DHT22;333;48.800;9.530;2023-12-14T14:00:26;8.70;99.60
2260;DHT22;333;48.800;9.530;2023-12-14T14:02:55;8.60;99.60
2260;DHT22;333;48.800;9.530;2023-12-14T14:05:22;8.40;99.60
2260;DHT22;333;48.800;9.530;2023-12-14T14:07:49;8.30;99.60
2260;DHT22;333;48.800;9.530;2023-12-14T14:10:17;8.20;99.60
2260;DHT22;333;48.800;9.530;2023-12-14T14:12:45;8.20;99.60
2260;DHT22;333;48.800;9.530;2023-12-14T14:15:12;8.20;99.60
2260;DHT22;333;48.800;9.530;2023-12-14T14:17:40;8.20;99.60
2260;DHT22;333;48.800;9.530;2023-12-14T14:20:09;8.20;99.60
2260;DHT22;333;48.800;9.530;2023-12-14T14:22:37;8.20;99.60
2260;DHT22;333;48.800;9.530;2023-12-14T14:25:04;8.10;99.60
2260;DHT22;333;48.800;9.530;2023-12-14T14:27:32;8.10;99.60
2260;DHT22;333;48.800;9.530;2023-12-14T14:29:59;8.10;99.60
2260;DHT22;333;48.800;9.530;2023-12-14T14:32:26;8.00;99.60
2260;DHT22;333;48.800;9.530;2023-12-14T14:34:53;8.00;99.60
2260;DHT22;333;48.800;9.530;2023-12-14T14:37:23;7.90;99.60
2260;DHT22;333;48.800;9.530;2023-12-14T14:39:51;7.90;99.60
2260;DHT22;333;48.800;9.530;2023-12-14T14:42:18;7.90;99.60
2260;DHT22;333;48.800;9.530;2023-12-14T14:44:45;7.90;99.60
2260;DHT22;333;48.800;9.530;2023-12-14T14:47:12;7.90;99.60
2260;DHT22;333;48.800;9.530;2023-12-14T14:49:40;7.90;99.60
2260;DHT22;333;48.800;9.530;2023-12-14T14:52:07;7.90;99.60
2260;DHT22;333;48.800;9.530;2023-12-14T14:54:35;7.90;99.60
2260;DHT22;333;48.800;9.530;2023-12-14T14:57:02;7.80;99.60
2260;DHT22;333;48.800;9.530;2023-12-14T14:59:30;7.80;99.60
2260;DHT22;333;48.800;9.530;2023-12-14T15:01:57;7.70;99.60
2260;DHT22;333;48.800;9.530;2023-12-14T15:04:26;7.70;99.60
2260;DHT22;333;48.800;9.530;2023-12-14T15:06:54;7.70;99.60
2260;DHT22;333;48.800;9.530;2023-12-14T15:09:21;7.70;99.60
2260;DHT22;333;48.800;9.530;2023-12-14T15:11:49;7.60;99.60
2260;DHT22;333;48.800;9.530;2023-12-14T15:14:16;7.60;99.60
2260;DHT22;333;48.800;9.530;2023-12-14T15:16:43;7.60;99.60
2260;DHT22;333;48.800;9.530;2023-12-14T15:19:12;7.60;99.60
2260;DHT22;333;48.800;9.530;2023-12-14T15:21:39;7.60;99.60
2260;DHT22;333;48.800;9.530;2023-12-14T15:24:06;7.60;99.60
2260;DHT22;333;48.800;9.530;2023-12-14T15:26:33;7.60;99.60
2260;DHT22;333;48.800;9.530;2023-12-14T15:29:02;7.60;99.60
2260;DHT22;333;48.800;9.530;2023-12-14T15:31:29;7.60;99.60
2260;DHT22;333;48.800;9.530;2023-12-14T15:33:56;7.60;99.60
2260;DHT22;333;48.800;9.530;2023-12-14T15:36:23;7.50;99.60
2260;DHT22;333;48.800;9.530;2023-12-14T15:38:50;7.50;99.60
2260;DHT22;333;48.800;9.530;2023-12-14T15:41:17;7.60;99.60
2260;DHT22;333;48.800;9.530;2023-12-14T15:43:45;7.60;99.60
2260;DHT22;333;48.800;9.530;2023-12-14T15:46:13;7.60;99.60
2260;DHT22;333;48.800;9.530;2023-12-14T15:48:44;7.60;99.60
2260;DHT22;333;48.800;9.530;2023-12-14T15:51:15;7.60;99.60
2260;DHT22;333;48.800;9.530;2023-12-14T15:53:42;7.60;99.60
2260;DHT22;333;48.800;9.530;2023-12-14T15:56:09;7.60;99.60
2260;DHT22;333;48.800;9.530;2023-12-14T15:58:36;7.50;99.60
2260;DHT22;333;48.800;9.530;2023-12-14T16:01:03;7.50;99.60
2260;DHT22;333;48.800;9.530;2023-12-14T16:03:32;7.60;99.60
2260;DHT22;333;48.800;9.530;2023-12-14T16:06:00;7.60;99.60
2260;DHT22;333;48.800;9.530;2023-12-14T16:08:27;7.50;99.60
2260;DHT22;333;48.800;9.530;2023-12-14T16:10:54;7.50;99.60
2260;DHT22;333;48.800;9.530;2023-12-14T16:13:21;7.50;99.60
2260;DHT22;333;48.800;9.530;2023-12-14T16:15:48;7.50;99.60
2260;DHT22;333;48.800;9.530;2023-12-14T16:18:15;7.60;99.60
2260;DHT22;333;48.800;9.530;2023-12-14T16:20:43;7.60;99.60
2260;DHT22;333;48.800;9.530;2023-12-14T16:23:12;7.50;99.60
2260;DHT22;333;48.800;9.530;2023-12-14T16:25:39;7.50;99.60
2260;DHT22;333;48.800;9.530;2023-12-14T16:28:06;7.50;99.60
2260;DHT22;333;48.800;9.530;2023-12-14T16:30:33;7.60;99.60
2260;DHT22;333;48.800;9.530;2023-12-14T16:33:00;7.60;99.60
2260;DHT22;333;48.800;9.530;2023-12-14T16:35:27;7.60;99.60
2260;DHT22;333;48.800;9.530;2023-12-14T16:37:57;7.60;99.60
2260;DHT22;333;48.800;9.530;2023-12-14T16:40:24;7.60;99.60